sensor_id;sensor_type;location;lat;lon;timestamp;temperature;humidity
17859;DHT22;35426;30.698;104.050;2023-11-21T00:00:20;15.00;99.90
17859;DHT22;35426;30.698;104.050;2023-11-21T00:02:57;15.00;99.90
17859;DHT22;35426;30.698;104.050;2023-11-21T00:05:33;15.00;99.90
17859;DHT22;35426;30.698;104.050;2023-11-21T00:08:06;15.00;99.90
17859;DHT22;35426;30.698;104.050;2023-11-21T00:10:40;15.00;99.90
17859;DHT22;35426;30.698;104.050;2023-11-21T00:13:16;14.80;99.90
17859;DHT22;35426;30.698;104.050;2023-11-21T00:15:51;14.80;99.90
17859;DHT22;35426;30.698;104.050;2023-11-21T00:18:25;14.80;99.90
17859;DHT22;35426;30.698;104.050;2023-11-21T00:21:01;14.90;99.90
17859;DHT22;35426;30.698;104.050;2023-11-21T00:23:38;14.80;99.90
17859;DHT22;35426;30.698;104.050;2023-11-21T00:26:12;15.00;99.90
17859;DHT22;35426;30.698;104.050;2023-11-21T00:28:52;15.00;99.90
17859;DHT22;35426;30.698;104.050;2023-11-21T00:31:26;14.90;99.90
17859;DHT22;35426;30.698;104.050;2023-11-21T00:34:00;15.00;99.90
17859;DHT22;35426;30.698;104.050;2023-11-21T00:36:37;15.00;99.90
17859;DHT22;35426;30.698;104.050;2023-11-21T00:39:12;15.10;99.90
17859;DHT22;35426;30.698;104.050;2023-11-21T00:41:46;15.00;99.90
17859;DHT22;35426;30.698;104.050;2023-11-21T00:44:20;15.00;99.90
17859;DHT22;35426;30.698;104.050;2023-11-21T00:46:54;15.00;99.90
17859;DHT22;35426;30.698;104.050;2023-11-21T00:49:29;14.80;99.90
17859;DHT22;35426;30.698;104.050;2023-11-21T00:52:06;14.80;99.90
17859;DHT22;35426;30.698;104.050;2023-11-21T00:54:41;14.90;99.90
17859;DHT22;35426;30.698;104.050;2023-11-21T00:57:15;15.10;99.90
17859;DHT22;35426;30.698;104.050;2023-11-21T00:59:51;15.20;99.90
17859;DHT22;35426;30.698;104.050;2023-11-21T01:02:26;15.10;99.90
17859;DHT22;35426;30.698;104.050;2023-11-21T01:05:00;15.00;99.90
17859;DHT22;35426;30.698;104.050;2023-11-21T01:07:37;15.00;99.90
17859;DHT22;35426;30.698;104.050;2023-11-21T01:10:11;15.10;99.90
17859;DHT22;35426;30.698;104.050;2023-11-21T01:12:45;15.20;99.90
17859;DHT22;35426;30.698;104.050;2023-11-21T01:15:20;15.30;99.90
17859;DHT22;35426;30.698;104.050;2023-11-21T01:17:55;15.10;99.90
17859;DHT22;35426;30.698;104.050;2023-11-21T01:20:30;15.00;99.90
17859;DHT22;35426;30.698;104.050;2023-11-21T01:23:07;15.20;99.90
17859;DHT22;35426;30.698;104.050;2023-11-21T01:25:41;15.30;99.90
17859;DHT22;35426;30.698;104.050;2023-11-21T01:28:15;15.50;99.90
17859;DHT22;35426;30.698;104.050;2023-11-21T01:30:49;15.50;99.90
17859;DHT22;35426;30.698;104.050;2023-11-21T01:33:23;15.60;99.90
17859;DHT22;35426;30.698;104.050;2023-11-21T01:35:59;15.70;99.90
17859;DHT22;35426;30.698;104.050;2023-11-21T01:38:37;15.40;99.90
17859;DHT22;35426;30.698;104.050;2023-11-21T01:41:11;15.30;99.90
17859;DHT22;35426;30.698;104.050;2023-11-21T01:43:44;15.30;99.90
17859;DHT22;35426;30.698;104.050;2023-11-21T01:46:19;15.20;99.90
17859;DHT22;35426;30.698;104.050;2023-11-21T01:48:54;15.30;99.90
17859;DHT22;35426;30.698;104.050;2023-11-21T01:51:28;15.20;99.90
17859;DHT22;35426;30.698;104.050;2023-11-21T01:54:06;15.20;99.90
17859;DHT22;35426;30.698;104.050;2023-11-21T01:56:47;15.00;99.90
17859;DHT22;35426;30.698;104.050;2023-11-21T01:59:25;14.90;99.90
17859;DHT22;35426;30.698;104.050;2023-11-21T02:01:59;14.80;99.90
17859;DHT22;35426;30.698;104.050;2023-11-21T02:04:36;14.80;99.90
17859;DHT22;35426;30.698;104.050;2023-11-21T02:07:10;14.90;99.90
17859;DHT22;35426;30.698;104.050;2023-11-21T02:09:51;15.00;99.90
17859;DHT22;35426;30.698;104.050;2023-11-21T02:12:26;15.00;99.90
17859;DHT22;35426;30.698;104.050;2023-11-21T02:15:00;15.20;99.90
17859;DHT22;35426;30.698;104.050;2023-11-21T02:17:40;15.20;99.90
17859;DHT22;35426;30.698;104.050;2023-11-21T02:20:14;15.70;99.90
17859;DHT22;35426;30.698;104.050;2023-11-21T02:22:58;15.90;99.90
17859;DHT22;35426;30.698;104.050;2023-11-21T02:25:33;15.80;99.90
17859;DHT22;35426;30.698;104.050;2023-11-21T02:28:08;16.00;99.90
17859;DHT22;35426;30.698;104.050;2023-11-21T02:30:45;16.30;99.90
17859;DHT22;35426;30.698;104.050;2023-11-21T02:33:26;16.20;99.90
17859;DHT22;35426;30.698;104.050;2023-11-21T02:36:00;16.00;99.90
17859;DHT22;35426;30.698;104.050;2023-11-21T02:38:36;15.90;99.90
17859;DHT22;35426;30.698;104.050;2023-11-21T02:41:11;15.90;99.90
17859;DHT22;35426;30.698;104.050;2023-11-21T02:43:45;15.80;99.90
17859;DHT22;35426;30.698;104.050;2023-11-21T02:46:19;15.70;99.90
17859;DHT22;35426;30.698;104.050;2023-11-21T02:48:53;15.80;99.90
17859;DHT22;35426;30.698;104.050;2023-11-21T02:51:29;15.90;99.90
17859;DHT22;35426;30.698;104.050;2023-11-21T02:54:06;16.10;99.90
17859;DHT22;35426;30.698;104.050;2023-11-21T02:56:40;16.10;99.90
17859;DHT22;35426;30.698;104.050;2023-11-21T02:59:15;15.80;99.90
17859;DHT22;35426;30.698;104.050;2023-11-21T03:01:50;15.90;99.90
17859;DHT22;35426;30.698;104.050;2023-11-21T03:04:25;15.60;99.90
17859;DHT22;35426;30.698;104.050;2023-11-21T03:07:00;15.60;99.90
17859;DHT22;35426;30.698;104.050;2023-11-21T03:09:37;15.80;99.90
17859;DHT22;35426;30.698;104.050;2023-11-21T03:12:11;15.80;99.90
17859;DHT22;35426;30.698;104.050;2023-11-21T03:14:44;15.80;99.90
17859;DHT22;35426;30.698;104.050;2023-11-21T03:17:19;15.90;99.90
17859;DHT22;35426;30.698;104.050;2023-11-21T03:19:54;15.90;99.90
17859;DHT22;35426;30.698;104.050;2023-11-21T03:22:28;15.90;99.90
17859;DHT22;35426;30.698;104.050;2023-11-21T03:25:05;15.80;99.90
17859;DHT22;35426;30.698;104.050;2023-11-21T03:27:42;15.90;99.90
17859;DHT22;35426;30.698;104.050;2023-11-21T03:30:16;15.90;99.90
17859;DHT22;35426;30.698;104.050;2023-11-21T03:32:50;16.00;99.90
17859;DHT22;35426;30.698;104.050;2023-11-21T03:35:24;16.00;99.90
17859;DHT22;35426;30.698;104.050;2023-11-21T03:38:01;16.10;99.90
17859;DHT22;35426;30.698;104.050;2023-11-21T03:40:38;16.20;99.90
17859;DHT22;35426;30.698;104.050;2023-11-21T03:43:13;16.10;99.90
17859;DHT22;35426;30.698;104.050;2023-11-21T03:45:48;16.20;99.90
17859;DHT22;35426;30.698;104.050;2023-11-21T03:48:22;16.20;99.90
17859;DHT22;35426;30.698;104.050;2023-11-21T03:50:56;16.40;99.90
17859;DHT22;35426;30.698;104.050;2023-11-21T03:53:30;16.40;99.90
17859;DHT22;35426;30.698;104.050;2023-11-21T03:56:06;16.10;99.90
17859;DHT22;35426;30.698;104.050;2023-11-21T03:58:41;16.00;99.90
17859;DHT22;35426;30.698;104.050;2023-11-21T04:01:21;16.30;99.90
17859;DHT22;35426;30.698;104.050;2023-11-21T04:03:55;16.40;99.90
17859;DHT22;35426;30.698;104.050;2023-11-21T04:06:29;16.30;99.90
17859;DHT22;35426;30.698;104.050;2023-11-21T04:09:03;16.20;99.90
17859;DHT22;35426;30.698;104.050;2023-11-21T04:11:41;16.20;99.90
17859;DHT22;35426;30.698;104.050;2023-11-21T04:14:16;16.20;99.90
17859;DHT22;35426;30.698;104.050;2023-11-21T04:16:51;16.40;99.90
17859;DHT22;35426;30.698;104.050;2023-11-21T04:19:25;16.40;99.90
17859;DHT22;35426;30.698;104.050;2023-11-21T04:21:59;16.50;99.90
17859;DHT22;35426;30.698;104.050;2023-11-21T04:24:34;16.40;99.90
17859;DHT22;35426;30.698;104.050;2023-11-21T04:27:09;16.40;99.90
17859;DHT22;35426;30.698;104.050;2023-11-21T04:29:44;16.50;99.90
17859;DHT22;35426;30.698;104.050;2023-11-21T04:32:17;16.60;99.90
17859;DHT22;35426;30.698;104.050;2023-11-21T04:34:52;16.50;99.90
17859;DHT22;35426;30.698;104.050;2023-11-21T04:37:26;16.60;99.90
17859;DHT22;35426;30.698;104.050;2023-11-21T04:40:00;16.50;99.90
17859;DHT22;35426;30.698;104.050;2023-11-21T04:42:40;16.60;99.90
17859;DHT22;35426;30.698;104.050;2023-11-21T04:45:14;16.50;99.90
17859;DHT22;35426;30.698;104.050;2023-11-21T04:47:50;16.70;99.90
17859;DHT22;35426;30.698;104.050;2023-11-21T04:50:25;16.80;99.90
17859;DHT22;35426;30.698;104.050;2023-11-21T04:53:00;16.80;99.90
17859;DHT22;35426;30.698;104.050;2023-11-21T04:55:36;16.70;99.90
17859;DHT22;35426;30.698;104.050;2023-11-21T04:58:13;16.80;99.90
17859;DHT22;35426;30.698;104.050;2023-11-21T05:00:49;16.70;99.90
17859;DHT22;35426;30.698;104.050;2023-11-21T05:03:22;16.70;99.90
17859;DHT22;35426;30.698;104.050;2023-11-21T05:05:57;16.60;99.90
17859;DHT22;35426;30.698;104.050;2023-11-21T05:08:31;16.50;99.90
17859;DHT22;35426;30.698;104.050;2023-11-21T05:11:06;16.60;99.90
17859;DHT22;35426;30.698;104.050;2023-11-21T05:13:44;16.60;99.90
17859;DHT22;35426;30.698;104.050;2023-11-21T05:16:18;16.60;99.90
17859;DHT22;35426;30.698;104.050;2023-11-21T05:18:54;16.60;99.90
17859;DHT22;35426;30.698;104.050;2023-11-21T05:21:33;16.50;99.90
17859;DHT22;35426;30.698;104.050;2023-11-21T05:24:08;16.60;99.90
17859;DHT22;35426;30.698;104.050;2023-11-21T05:26:42;16.60;99.90
17859;DHT22;35426;30.698;104.050;2023-11-21T05:29:18;16.50;99.90
17859;DHT22;35426;30.698;104.050;2023-11-21T05:31:53;16.70;99.90
17859;DHT22;35426;30.698;104.050;2023-11-21T05:34:27;16.60;99.90
17859;DHT22;35426;30.698;104.050;2023-11-21T05:37:01;16.70;99.90
17859;DHT22;35426;30.698;104.050;2023-11-21T05:39:36;16.80;99.90
17859;DHT22;35426;30.698;104.050;2023-11-21T05:42:10;16.70;99.90
17859;DHT22;35426;30.698;104.050;2023-11-21T05:44:46;16.70;99.90
17859;DHT22;35426;30.698;104.050;2023-11-21T05:47:20;16.80;99.90
17859;DHT22;35426;30.698;104.050;2023-11-21T05:49:54;16.90;99.90
17859;DHT22;35426;30.698;104.050;2023-11-21T05:52:28;17.00;99.90
17859;DHT22;35426;30.698;104.050;2023-11-21T05:55:04;17.00;99.90
17859;DHT22;35426;30.698;104.050;2023-11-21T05:57:39;17.00;99.90
17859;DHT22;35426;30.698;104.050;2023-11-21T06:00:16;16.80;99.90
17859;DHT22;35426;30.698;104.050;2023-11-21T06:02:54;16.80;99.90
17859;DHT22;35426;30.698;104.050;2023-11-21T06:05:28;16.60;99.90
17859;DHT22;35426;30.698;104.050;2023-11-21T06:08:03;16.60;99.90
17859;DHT22;35426;30.698;104.050;2023-11-21T06:10:39;16.70;99.90
17859;DHT22;35426;30.698;104.050;2023-11-21T06:13:12;17.00;99.90
17859;DHT22;35426;30.698;104.050;2023-11-21T06:15:49;17.10;99.90
17859;DHT22;35426;30.698;104.050;2023-11-21T06:18:23;16.90;99.90
17859;DHT22;35426;30.698;104.050;2023-11-21T06:20:57;16.80;99.90
17859;DHT22;35426;30.698;104.050;2023-11-21T06:23:31;16.70;99.90
17859;DHT22;35426;30.698;104.050;2023-11-21T06:26:06;16.60;99.90
17859;DHT22;35426;30.698;104.050;2023-11-21T06:28:40;16.80;99.90
17859;DHT22;35426;30.698;104.050;2023-11-21T06:31:16;16.80;99.90
17859;DHT22;35426;30.698;104.050;2023-11-21T06:33:50;16.80;99.90
17859;DHT22;35426;30.698;104.050;2023-11-21T06:36:26;16.70;99.90
17859;DHT22;35426;30.698;104.050;2023-11-21T06:39:00;16.60;99.90
17859;DHT22;35426;30.698;104.050;2023-11-21T06:41:36;16.60;99.90
17859;DHT22;35426;30.698;104.050;2023-11-21T06:44:11;16.60;99.90
17859;DHT22;35426;30.698;104.050;2023-11-21T06:46:48;16.50;99.90
17859;DHT22;35426;30.698;104.050;2023-11-21T06:49:22;16.40;99.90
17859;DHT22;35426;30.698;104.050;2023-11-21T06:51:57;16.80;99.90
17859;DHT22;35426;30.698;104.050;2023-11-21T06:54:31;16.70;99.90
17859;DHT22;35426;30.698;104.050;2023-11-21T06:57:06;16.50;99.90
17859;DHT22;35426;30.698;104.050;2023-11-21T06:59:39;16.40;99.90
17859;DHT22;35426;30.698;104.050;2023-11-21T07:02:15;16.30;99.90
17859;DHT22;35426;30.698;104.050;2023-11-21T07:04:49;16.40;99.90
17859;DHT22;35426;30.698;104.050;2023-11-21T07:07:23;16.60;99.90
17859;DHT22;35426;30.698;104.050;2023-11-21T07:09:58;16.30;99.90
17859;DHT22;35426;30.698;104.050;2023-11-21T07:12:34;16.50;99.90
17859;DHT22;35426;30.698;104.050;2023-11-21T07:15:10;16.50;99.90
17859;DHT22;35426;30.698;104.050;2023-11-21T07:17:45;16.30;99.90
17859;DHT22;35426;30.698;104.050;2023-11-21T07:20:20;16.20;99.90
17859;DHT22;35426;30.698;104.050;2023-11-21T07:22:54;16.20;99.90
17859;DHT22;35426;30.698;104.050;2023-11-21T07:25:28;16.30;99.90
17859;DHT22;35426;30.698;104.050;2023-11-21T07:28:03;16.60;99.90
17859;DHT22;35426;30.698;104.050;2023-11-21T07:30:36;16.30;99.90
17859;DHT22;35426;30.698;104.050;2023-11-21T07:33:13;16.30;99.90
17859;DHT22;35426;30.698;104.050;2023-11-21T07:35:47;16.20;99.90
17859;DHT22;35426;30.698;104.050;2023-11-21T07:38:21;16.20;99.90
17859;DHT22;35426;30.698;104.050;2023-11-21T07:40:57;16.10;99.90
17859;DHT22;35426;30.698;104.050;2023-11-21T07:43:32;16.30;99.90
17859;DHT22;35426;30.698;104.050;2023-11-21T07:46:06;16.40;99.90
17859;DHT22;35426;30.698;104.050;2023-11-21T07:48:42;16.50;99.90
17859;DHT22;35426;30.698;104.050;2023-11-21T07:51:17;16.50;99.90
17859;DHT22;35426;30.698;104.050;2023-11-21T07:53:51;16.40;99.90
17859;DHT22;35426;30.698;104.050;2023-11-21T07:56:24;16.30;99.90
17859;DHT22;35426;30.698;104.050;2023-11-21T07:58:58;16.10;99.90
17859;DHT22;35426;30.698;104.050;2023-11-21T08:01:32;16.10;99.90
17859;DHT22;35426;30.698;104.050;2023-11-21T08:04:09;16.30;99.90
17859;DHT22;35426;30.698;104.050;2023-11-21T08:06:44;16.30;99.90
17859;DHT22;35426;30.698;104.050;2023-11-21T08:09:18;16.30;99.90
17859;DHT22;35426;30.698;104.050;2023-11-21T08:11:55;16.20;99.90
17859;DHT22;35426;30.698;104.050;2023-11-21T08:14:31;16.10;99.90
17859;DHT22;35426;30.698;104.050;2023-11-21T08:17:05;16.20;99.90
17859;DHT22;35426;30.698;104.050;2023-11-21T08:19:46;16.30;99.90
17859;DHT22;35426;30.698;104.050;2023-11-21T08:22:22;16.20;99.90
17859;DHT22;35426;30.698;104.050;2023-11-21T08:24:56;16.20;99.90
17859;DHT22;35426;30.698;104.050;2023-11-21T08:27:30;16.30;99.90
17859;DHT22;35426;30.698;104.050;2023-11-21T08:30:04;16.20;99.90
17859;DHT22;35426;30.698;104.050;2023-11-21T08:32:38;16.20;99.90
17859;DHT22;35426;30.698;104.050;2023-11-21T08:35:16;16.20;99.90
17859;DHT22;35426;30.698;104.050;2023-11-21T08:37:52;16.10;99.90
17859;DHT22;35426;30.698;104.050;2023-11-21T08:40:26;16.10;99.90
17859;DHT22;35426;30.698;104.050;2023-11-21T08:43:01;16.00;99.90
17859;DHT22;35426;30.698;104.050;2023-11-21T08:45:36;15.80;99.90
17859;DHT22;35426;30.698;104.050;2023-11-21T08:48:10;15.80;99.90
17859;DHT22;35426;30.698;104.050;2023-11-21T08:50:46;15.90;99.90
17859;DHT22;35426;30.698;104.050;2023-11-21T08:53:20;15.90;99.90
17859;DHT22;35426;30.698;104.050;2023-11-21T08:55:54;15.80;99.90
17859;DHT22;35426;30.698;104.050;2023-11-21T08:58:28;15.80;99.90
17859;DHT22;35426;30.698;104.050;2023-11-21T09:01:03;15.60;99.90
17859;DHT22;35426;30.698;104.050;2023-11-21T09:03:38;15.80;99.90
17859;DHT22;35426;30.698;104.050;2023-11-21T09:06:15;15.70;99.90
17859;DHT22;35426;30.698;104.050;2023-11-21T09:08:49;15.70;99.90
17859;DHT22;35426;30.698;104.050;2023-11-21T09:11:24;15.60;99.90
17859;DHT22;35426;30.698;104.050;2023-11-21T09:14:04;15.50;99.90
17859;DHT22;35426;30.698;104.050;2023-11-21T09:16:40;15.60;99.90
17859;DHT22;35426;30.698;104.050;2023-11-21T09:19:14;15.60;99.90
17859;DHT22;35426;30.698;104.050;2023-11-21T09:21:50;15.60;99.90
17859;DHT22;35426;30.698;104.050;2023-11-21T09:24:25;15.60;99.90
17859;DHT22;35426;30.698;104.050;2023-11-21T09:27:02;15.40;99.90
17859;DHT22;35426;30.698;104.050;2023-11-21T09:29:37;15.40;99.90
17859;DHT22;35426;30.698;104.050;2023-11-21T09:32:11;15.20;99.90
17859;DHT22;35426;30.698;104.050;2023-11-21T09:34:49;15.10;99.90
17859;DHT22;35426;30.698;104.050;2023-11-21T09:37:29;15.10;99.90
17859;DHT22;35426;30.698;104.050;2023-11-21T09:40:03;15.10;99.90
17859;DHT22;35426;30.698;104.050;2023-11-21T09:42:50;15.10;99.90
17859;DHT22;35426;30.698;104.050;2023-11-21T09:45:32;15.10;99.90
17859;DHT22;35426;30.698;104.050;2023-11-21T09:48:08;15.10;99.90
17859;DHT22;35426;30.698;104.050;2023-11-21T09:50:45;15.10;99.90
17859;DHT22;35426;30.698;104.050;2023-11-21T09:53:24;15.00;99.90
17859;DHT22;35426;30.698;104.050;2023-11-21T09:56:01;15.00;99.90
17859;DHT22;35426;30.698;104.050;2023-11-21T09:58:35;15.00;99.90
17859;DHT22;35426;30.698;104.050;2023-11-21T10:01:12;15.10;99.90
17859;DHT22;35426;30.698;104.050;2023-11-21T10:03:47;15.10;99.90
17859;DHT22;35426;30.698;104.050;2023-11-21T10:06:22;15.00;99.90
17859;DHT22;35426;30.698;104.050;2023-11-21T10:08:58;15.00;99.90
17859;DHT22;35426;30.698;104.050;2023-11-21T10:11:34;15.00;99.90
17859;DHT22;35426;30.698;104.050;2023-11-21T10:14:11;15.00;99.90
17859;DHT22;35426;30.698;104.050;2023-11-21T10:16:48;15.00;99.90
17859;DHT22;35426;30.698;104.050;2023-11-21T10:19:23;15.00;99.90
17859;DHT22;35426;30.698;104.050;2023-11-21T10:21:59;14.90;99.90
17859;DHT22;35426;30.698;104.050;2023-11-21T10:24:36;15.00;99.90
17859;DHT22;35426;30.698;104.050;2023-11-21T10:27:22;15.00;99.90
17859;DHT22;35426;30.698;104.050;2023-11-21T10:29:56;14.90;99.90
17859;DHT22;35426;30.698;104.050;2023-11-21T10:32:32;15.00;99.90
17859;DHT22;35426;30.698;104.050;2023-11-21T10:35:07;15.00;99.90
17859;DHT22;35426;30.698;104.050;2023-11-21T10:37:41;15.00;99.90
17859;DHT22;35426;30.698;104.050;2023-11-21T10:40:18;14.90;99.90
17859;DHT22;35426;30.698;104.050;2023-11-21T10:42:52;15.00;99.90
17859;DHT22;35426;30.698;104.050;2023-11-21T10:45:29;14.90;99.90
17859;DHT22;35426;30.698;104.050;2023-11-21T10:48:06;15.00;99.90
17859;DHT22;35426;30.698;104.050;2023-11-21T10:50:41;15.00;99.90
17859;DHT22;35426;30.698;104.050;2023-11-21T10:53:15;14.90;99.90
17859;DHT22;35426;30.698;104.050;2023-11-21T10:56:02;15.00;99.90
17859;DHT22;35426;30.698;104.050;2023-11-21T10:58:39;15.00;99.90
17859;DHT22;35426;30.698;104.050;2023-11-21T11:01:18;14.90;99.90
17859;DHT22;35426;30.698;104.050;2023-11-21T11:03:56;15.00;99.90
17859;DHT22;35426;30.698;104.050;2023-11-21T11:06:30;15.00;99.90
17859;DHT22;35426;30.698;104.050;2023-11-21T11:09:05;15.00;99.90
17859;DHT22;35426;30.698;104.050;2023-11-21T11:11:43;15.00;99.90
17859;DHT22;35426;30.698;104.050;2023-11-21T11:14:20;15.10;99.90
17859;DHT22;35426;30.698;104.050;2023-11-21T11:16:56;15.00;99.90
17859;DHT22;35426;30.698;104.050;2023-11-21T11:19:31;15.10;99.90
17859;DHT22;35426;30.698;104.050;2023-11-21T11:22:12;15.10;99.90
17859;DHT22;35426;30.698;104.050;2023-11-21T11:25:12;15.00;99.90
17859;DHT22;35426;30.698;104.050;2023-11-21T11:28:04;15.00;99.90
17859;DHT22;35426;30.698;104.050;2023-11-21T11:30:55;15.10;99.90
17859;DHT22;35426;30.698;104.050;2023-11-21T11:33:37;15.20;99.90
17859;DHT22;35426;30.698;104.050;2023-11-21T11:36:20;15.10;99.90
17859;DHT22;35426;30.698;104.050;2023-11-21T11:38:56;15.30;99.90
17859;DHT22;35426;30.698;104.050;2023-11-21T11:41:33;15.20;99.90
17859;DHT22;35426;30.698;104.050;2023-11-21T11:47:27;15.30;99.90
17859;DHT22;35426;30.698;104.050;2023-11-21T11:50:05;15.30;99.90
17859;DHT22;35426;30.698;104.050;2023-11-21T11:52:45;15.30;99.90
17859;DHT22;35426;30.698;104.050;2023-11-21T11:55:20;15.20;99.90
17859;DHT22;35426;30.698;104.050;2023-11-21T11:57:55;15.10;99.90
17859;DHT22;35426;30.698;104.050;2023-11-21T12:00:37;15.20;99.90
17859;DHT22;35426;30.698;104.050;2023-11-21T12:03:12;15.30;99.90
17859;DHT22;35426;30.698;104.050;2023-11-21T12:05:47;15.30;99.90
17859;DHT22;35426;30.698;104.050;2023-11-21T12:08:30;15.40;99.90
17859;DHT22;35426;30.698;104.050;2023-11-21T12:11:04;15.50;99.90
17859;DHT22;35426;30.698;104.050;2023-11-21T12:13:39;15.60;99.90
17859;DHT22;35426;30.698;104.050;2023-11-21T12:16:16;15.70;99.90
17859;DHT22;35426;30.698;104.050;2023-11-21T12:18:48;15.70;99.90
17859;DHT22;35426;30.698;104.050;2023-11-21T12:21:24;15.80;99.90
17859;DHT22;35426;30.698;104.050;2023-11-21T12:23:58;15.80;99.90
17859;DHT22;35426;30.698;104.050;2023-11-21T12:26:33;15.70;99.90
17859;DHT22;35426;30.698;104.050;2023-11-21T12:29:07;15.70;99.90
17859;DHT22;35426;30.698;104.050;2023-11-21T12:31:44;15.70;99.90
17859;DHT22;35426;30.698;104.050;2023-11-21T12:34:19;15.50;99.90
17859;DHT22;35426;30.698;104.050;2023-11-21T12:36:56;15.50;99.90
17859;DHT22;35426;30.698;104.050;2023-11-21T12:39:30;15.50;99.90
17859;DHT22;35426;30.698;104.050;2023-11-21T12:42:05;15.50;99.90
17859;DHT22;35426;30.698;104.050;2023-11-21T12:44:40;15.50;99.90
17859;DHT22;35426;30.698;104.050;2023-11-21T12:47:20;15.50;99.90
17859;DHT22;35426;30.698;104.050;2023-11-21T12:49:58;15.60;99.90
17859;DHT22;35426;30.698;104.050;2023-11-21T12:52:34;15.60;99.90
17859;DHT22;35426;30.698;104.050;2023-11-21T12:55:11;15.60;99.90
17859;DHT22;35426;30.698;104.050;2023-11-21T12:57:47;15.50;99.90
17859;DHT22;35426;30.698;104.050;2023-11-21T13:00:30;15.60;99.90
17859;DHT22;35426;30.698;104.050;2023-11-21T13:03:11;15.50;99.90
17859;DHT22;35426;30.698;104.050;2023-11-21T13:05:49;15.50;99.90
17859;DHT22;35426;30.698;104.050;2023-11-21T13:08:25;15.30;99.90
17859;DHT22;35426;30.698;104.050;2023-11-21T13:11:01;15.30;99.90
17859;DHT22;35426;30.698;104.050;2023-11-21T13:13:37;15.30;99.90
17859;DHT22;35426;30.698;104.050;2023-11-21T13:16:15;15.30;99.90
17859;DHT22;35426;30.698;104.050;2023-11-21T13:18:54;15.20;99.90
17859;DHT22;35426;30.698;104.050;2023-11-21T13:21:29;15.20;99.90
17859;DHT22;35426;30.698;104.050;2023-11-21T13:24:04;15.30;99.90
17859;DHT22;35426;30.698;104.050;2023-11-21T13:26:38;15.20;99.90
17859;DHT22;35426;30.698;104.050;2023-11-21T13:29:13;15.20;99.90
17859;DHT22;35426;30.698;104.050;2023-11-21T13:31:47;15.20;99.90
17859;DHT22;35426;30.698;104.050;2023-11-21T13:34:24;15.20;99.90
17859;DHT22;35426;30.698;104.050;2023-11-21T13:37:02;15.20;99.90
17859;DHT22;35426;30.698;104.050;2023-11-21T13:39:38;15.10;99.90
17859;DHT22;35426;30.698;104.050;2023-11-21T13:42:16;15.10;99.90
17859;DHT22;35426;30.698;104.050;2023-11-21T13:44:56;15.10;99.90
17859;DHT22;35426;30.698;104.050;2023-11-21T13:47:29;15.00;99.90
17859;DHT22;35426;30.698;104.050;2023-11-21T13:50:08;15.00;99.90
17859;DHT22;35426;30.698;104.050;2023-11-21T13:52:49;15.00;99.90
17859;DHT22;35426;30.698;104.050;2023-11-21T13:55:24;14.90;99.90
17859;DHT22;35426;30.698;104.050;2023-11-21T13:57:58;14.80;99.90
17859;DHT22;35426;30.698;104.050;2023-11-21T14:00:33;14.80;99.90
17859;DHT22;35426;30.698;104.050;2023-11-21T14:03:16;14.80;99.90
17859;DHT22;35426;30.698;104.050;2023-11-21T14:05:55;14.80;99.90
17859;DHT22;35426;30.698;104.050;2023-11-21T14:08:31;14.70;99.90
17859;DHT22;35426;30.698;104.050;2023-11-21T14:11:06;14.70;99.90
17859;DHT22;35426;30.698;104.050;2023-11-21T14:13:43;14.70;99.90
17859;DHT22;35426;30.698;104.050;2023-11-21T14:16:19;14.70;99.90
17859;DHT22;35426;30.698;104.050;2023-11-21T14:18:53;14.70;99.90
17859;DHT22;35426;30.698;104.050;2023-11-21T14:21:36;14.80;99.90
17859;DHT22;35426;30.698;104.050;2023-11-21T14:24:10;14.60;99.90
17859;DHT22;35426;30.698;104.050;2023-11-21T14:26:47;14.60;99.90
17859;DHT22;35426;30.698;104.050;2023-11-21T14:29:23;14.60;99.90
17859;DHT22;35426;30.698;104.050;2023-11-21T14:31:58;14.70;99.90
17859;DHT22;35426;30.698;104.050;2023-11-21T14:34:33;14.70;99.90
17859;DHT22;35426;30.698;104.050;2023-11-21T14:37:10;14.70;99.90
17859;DHT22;35426;30.698;104.050;2023-11-21T14:39:45;14.60;99.90
17859;DHT22;35426;30.698;104.050;2023-11-21T14:42:20;14.70;99.90
17859;DHT22;35426;30.698;104.050;2023-11-21T14:44:56;14.70;99.90
17859;DHT22;35426;30.698;104.050;2023-11-21T14:47:35;14.60;99.90
17859;DHT22;35426;30.698;104.050;2023-11-21T14:50:16;14.60;99.90
17859;DHT22;35426;30.698;104.050;2023-11-21T14:53:08;14.60;99.90
17859;DHT22;35426;30.698;104.050;2023-11-21T14:55:43;14.60;99.90
17859;DHT22;35426;30.698;104.050;2023-11-21T14:58:28;14.70;99.90
17859;DHT22;35426;30.698;104.050;2023-11-21T15:01:03;14.70;99.90
17859;DHT22;35426;30.698;104.050;2023-11-21T15:03:39;14.60;99.90
17859;DHT22;35426;30.698;104.050;2023-11-21T15:06:21;14.50;99.90
17859;DHT22;35426;30.698;104.050;2023-11-21T15:09:04;14.50;99.90
17859;DHT22;35426;30.698;104.050;2023-11-21T15:11:53;14.50;99.90
17859;DHT22;35426;30.698;104.050;2023-11-21T15:14:34;14.50;99.90
17859;DHT22;35426;30.698;104.050;2023-11-21T15:17:08;14.60;99.90
17859;DHT22;35426;30.698;104.050;2023-11-21T15:19:44;14.60;99.90
17859;DHT22;35426;30.698;104.050;2023-11-21T15:22:20;14.60;99.90
17859;DHT22;35426;30.698;104.050;2023-11-21T15:24:57;14.60;99.90
17859;DHT22;35426;30.698;104.050;2023-11-21T15:27:38;14.70;99.90
17859;DHT22;35426;30.698;104.050;2023-11-21T15:30:13;14.70;99.90
17859;DHT22;35426;30.698;104.050;2023-11-21T15:32:51;14.70;99.90
17859;DHT22;35426;30.698;104.050;2023-11-21T15:35:25;14.70;99.90
17859;DHT22;35426;30.698;104.050;2023-11-21T15:38:01;14.70;99.90
17859;DHT22;35426;30.698;104.050;2023-11-21T15:40:41;14.70;99.90
17859;DHT22;35426;30.698;104.050;2023-11-21T15:43:17;14.60;99.90
17859;DHT22;35426;30.698;104.050;2023-11-21T15:45:53;14.50;99.90
17859;DHT22;35426;30.698;104.050;2023-11-21T15:48:27;14.50;99.90
17859;DHT22;35426;30.698;104.050;2023-11-21T15:51:02;14.60;99.90
17859;DHT22;35426;30.698;104.050;2023-11-21T15:53:36;14.70;99.90
17859;DHT22;35426;30.698;104.050;2023-11-21T15:56:12;14.60;99.90
17859;DHT22;35426;30.698;104.050;2023-11-21T15:58:45;14.60;99.90